Time;durP1;ratioP1;P1;durP2;ratioP2;P2;SDS_P1;SDS_P2;PMS_P1;PMS_P2;Temp;Humidity;BMP_temperature;BMP_pressure;BME280_temperature;BME280_humidity;BME280_pressure;Samples;Min_cycle;Max_cycle;Signal;HPM_P1;HPM_P2
2022/04/14 00:01:42;;;;;;;;;;;13.40;99.90;;;;;;5018357;28;19916;-74
2022/04/14 00:04:08;;;;;;;;;;;13.50;99.90;;;;;;5018915;28;19916;-74
2022/04/14 00:06:33;;;;;;;;;;;13.40;99.90;;;;;;5006162;28;19916;-74
2022/04/14 00:08:59;;;;;;;;;;;13.50;99.90;;;;;;5022171;28;19913;-74
2022/04/14 00:11:25;;;;;;;;;;;13.50;99.90;;;;;;5022477;28;20337;-74
2022/04/14 00:13:50;;;;;;;;;;;13.50;99.90;;;;;;5021509;28;20122;-74
2022/04/14 00:16:16;;;;;;;;;;;13.50;99.90;;;;;;5024923;28;19959;-74
2022/04/14 00:18:42;;;;;;;;;;;13.50;99.90;;;;;;5024553;28;19909;-74
2022/04/14 00:21:07;;;;;;;;;;;13.20;99.90;;;;;;5021758;28;20404;-74
2022/04/14 00:23:33;;;;;;;;;;;12.80;99.90;;;;;;5021918;28;19970;-75
2022/04/14 00:25:58;;;;;;;;;;;12.90;99.90;;;;;;5022858;28;19923;-75
2022/04/14 00:28:24;;;;;;;;;;;12.70;99.90;;;;;;5023624;28;20383;-74
2022/04/14 00:30:49;;;;;;;;;;;12.50;99.90;;;;;;5025670;28;19951;-75
2022/04/14 00:33:15;;;;;;;;;;;12.40;99.90;;;;;;5019686;28;20403;-74
2022/04/14 00:35:40;;;;;;;;;;;12.30;99.90;;;;;;5022119;28;20346;-75
2022/04/14 00:38:06;;;;;;;;;;;12.40;99.90;;;;;;5022770;28;20439;-74
2022/04/14 00:40:32;;;;;;;;;;;12.30;99.90;;;;;;5027024;28;19920;-75
2022/04/14 00:42:57;;;;;;;;;;;12.20;99.90;;;;;;5029864;28;19915;-74
2022/04/14 00:45:23;;;;;;;;;;;12.20;99.90;;;;;;5028445;28;20405;-74
2022/04/14 00:47:53;;;;;;;;;;;12.10;99.90;;;;;;5026136;28;20321;-74
2022/04/14 00:50:19;;;;;;;;;;;12.20;99.90;;;;;;5028601;28;20008;-74
2022/04/14 00:52:45;;;;;;;;;;;12.10;99.90;;;;;;5026308;28;20357;-74
2022/04/14 00:55:11;;;;;;;;;;;12.20;99.90;;;;;;5010544;28;19952;-74
2022/04/14 00:57:37;;;;;;;;;;;12.10;99.90;;;;;;5029576;28;20248;-74
2022/04/14 01:00:04;;;;;;;;;;;12.30;99.90;;;;;;5029081;28;20273;-74
2022/04/14 01:02:30;;;;;;;;;;;12.20;99.90;;;;;;5029241;28;19909;-74
2022/04/14 01:04:56;;;;;;;;;;;12.10;99.90;;;;;;5028530;28;19905;-74
2022/04/14 01:07:22;;;;;;;;;;;12.10;99.90;;;;;;5029290;28;19917;-74
2022/04/14 01:09:48;;;;;;;;;;;12.10;99.90;;;;;;5030952;28;19905;-74
2022/04/14 01:12:14;;;;;;;;;;;12.20;99.90;;;;;;5028645;28;19962;-74
2022/04/14 01:14:39;;;;;;;;;;;12.20;99.90;;;;;;5028891;28;19962;-74
2022/04/14 01:17:06;;;;;;;;;;;12.20;99.90;;;;;;5028766;28;20067;-74
2022/04/14 01:19:32;;;;;;;;;;;12.10;99.90;;;;;;5028555;28;19913;-74
2022/04/14 01:22:06;;;;;;;;;;;12.10;99.90;;;;;;5031789;28;20073;-74
2022/04/14 01:24:31;;;;;;;;;;;12.10;99.90;;;;;;5031137;28;19909;-75
2022/04/14 01:26:58;;;;;;;;;;;12.10;99.90;;;;;;5028494;28;20039;-74
2022/04/14 01:29:24;;;;;;;;;;;12.20;99.90;;;;;;5028517;28;19913;-74
2022/04/14 01:31:50;;;;;;;;;;;12.40;99.90;;;;;;5028889;28;19908;-74
2022/04/14 01:34:16;;;;;;;;;;;12.50;99.90;;;;;;5030611;28;20281;-74
2022/04/14 01:36:41;;;;;;;;;;;12.70;99.90;;;;;;5030445;28;19915;-74
2022/04/14 01:39:11;;;;;;;;;;;12.70;99.90;;;;;;5028111;28;19948;-74
2022/04/14 01:41:38;;;;;;;;;;;12.80;99.90;;;;;;5028316;28;19913;-74
2022/04/14 01:44:04;;;;;;;;;;;12.90;99.90;;;;;;5028725;28;20016;-74
2022/04/14 01:46:29;;;;;;;;;;;12.90;99.90;;;;;;5028094;28;20330;-74
2022/04/14 01:48:55;;;;;;;;;;;13.00;99.90;;;;;;5032076;28;19905;-74
2022/04/14 01:51:20;;;;;;;;;;;13.00;99.90;;;;;;5027572;28;19909;-74
2022/04/14 01:53:46;;;;;;;;;;;13.00;99.90;;;;;;5028177;28;20392;-74
2022/04/14 01:56:11;;;;;;;;;;;13.10;99.90;;;;;;5011334;28;19913;-74
2022/04/14 01:58:37;;;;;;;;;;;13.10;99.90;;;;;;5028080;28;19910;-74
2022/04/14 02:01:03;;;;;;;;;;;13.20;99.90;;;;;;5031174;28;19905;-74
2022/04/14 02:03:28;;;;;;;;;;;13.20;99.90;;;;;;5028891;28;19913;-73
2022/04/14 02:05:54;;;;;;;;;;;13.20;99.90;;;;;;5027867;28;19913;-74
2022/04/14 02:08:19;;;;;;;;;;;13.20;99.90;;;;;;5027910;28;20251;-74
2022/04/14 02:10:45;;;;;;;;;;;13.30;99.90;;;;;;5027906;28;19905;-74
2022/04/14 02:13:11;;;;;;;;;;;13.30;99.90;;;;;;5030082;28;19916;-74
2022/04/14 02:15:36;;;;;;;;;;;13.30;99.90;;;;;;5029505;28;19909;-74
2022/04/14 02:18:02;;;;;;;;;;;13.20;99.90;;;;;;5027837;28;19935;-74
2022/04/14 02:20:27;;;;;;;;;;;13.10;99.90;;;;;;5027775;28;19948;-74
2022/04/14 02:22:53;;;;;;;;;;;13.10;99.90;;;;;;5031762;28;19971;-74
2022/04/14 02:25:19;;;;;;;;;;;13.10;99.90;;;;;;5033227;28;19939;-73
2022/04/14 02:27:44;;;;;;;;;;;13.00;99.90;;;;;;5033937;28;20028;-74
2022/04/14 02:30:10;;;;;;;;;;;13.00;99.90;;;;;;5031579;28;19911;-74
2022/04/14 02:32:36;;;;;;;;;;;12.90;99.90;;;;;;5032161;28;19909;-74
2022/04/14 02:35:04;;;;;;;;;;;12.70;99.90;;;;;;5031222;28;19996;-74
2022/04/14 02:37:30;;;;;;;;;;;12.60;99.90;;;;;;5031606;28;19913;-74
2022/04/14 02:39:55;;;;;;;;;;;12.50;99.90;;;;;;5035099;28;20381;-74
2022/04/14 02:42:21;;;;;;;;;;;12.50;99.90;;;;;;5031780;28;20072;-74
2022/04/14 02:44:46;;;;;;;;;;;12.60;99.90;;;;;;5031265;28;19916;-74
2022/04/14 02:47:12;;;;;;;;;;;12.70;99.90;;;;;;5031715;28;19924;-74
2022/04/14 02:49:37;;;;;;;;;;;12.70;99.90;;;;;;5031078;28;19913;-74
2022/04/14 02:52:03;;;;;;;;;;;12.80;99.90;;;;;;5034472;28;20294;-74
2022/04/14 02:54:29;;;;;;;;;;;12.80;99.90;;;;;;5032301;28;19992;-74
2022/04/14 02:56:54;;;;;;;;;;;12.90;99.90;;;;;;5014420;28;19916;-75
2022/04/14 02:59:20;;;;;;;;;;;12.90;99.90;;;;;;5031109;28;19916;-74
2022/04/14 03:01:45;;;;;;;;;;;12.90;99.90;;;;;;5031256;28;19958;-74
2022/04/14 03:04:11;;;;;;;;;;;12.80;99.90;;;;;;5033540;28;19909;-74
2022/04/14 03:06:38;;;;;;;;;;;12.80;99.90;;;;;;5031870;28;19921;-74
2022/04/14 03:09:03;;;;;;;;;;;12.90;99.90;;;;;;5031083;28;19919;-74
2022/04/14 03:11:29;;;;;;;;;;;12.90;99.90;;;;;;5030554;28;19912;-74
2022/04/14 03:13:55;;;;;;;;;;;12.90;99.90;;;;;;5030977;28;20345;-74
2022/04/14 03:16:20;;;;;;;;;;;12.90;99.90;;;;;;5032488;28;19909;-74
2022/04/14 03:18:46;;;;;;;;;;;12.80;99.90;;;;;;5032914;28;20003;-74
2022/04/14 03:21:12;;;;;;;;;;;12.80;99.90;;;;;;5031112;28;20329;-74
2022/04/14 03:23:39;;;;;;;;;;;12.80;99.90;;;;;;5031043;28;19919;-74
2022/04/14 03:26:08;;;;;;;;;;;12.80;99.90;;;;;;5030642;28;20286;-74
2022/04/14 03:28:34;;;;;;;;;;;12.80;99.90;;;;;;5030686;28;19913;-75
2022/04/14 03:30:59;;;;;;;;;;;12.80;99.90;;;;;;5034173;28;19959;-74
2022/04/14 03:33:25;;;;;;;;;;;12.80;99.90;;;;;;5031483;28;19916;-74
2022/04/14 03:35:50;;;;;;;;;;;12.80;99.90;;;;;;5013182;28;19909;-74
2022/04/14 03:38:16;;;;;;;;;;;12.80;99.90;;;;;;5030054;28;19916;-74
2022/04/14 03:40:42;;;;;;;;;;;12.80;99.90;;;;;;5030437;28;19910;-75
2022/04/14 03:43:07;;;;;;;;;;;12.80;99.90;;;;;;5032739;28;19916;-74
2022/04/14 03:45:33;;;;;;;;;;;12.80;99.90;;;;;;5032050;28;19913;-74
2022/04/14 03:48:02;;;;;;;;;;;12.80;99.90;;;;;;5029510;28;19951;-74
2022/04/14 03:50:27;;;;;;;;;;;12.80;99.90;;;;;;5030335;28;19955;-74
2022/04/14 03:52:53;;;;;;;;;;;12.70;99.90;;;;;;5012400;28;19940;-74
2022/04/14 03:55:18;;;;;;;;;;;12.70;99.90;;;;;;5031903;28;19963;-74
2022/04/14 03:57:44;;;;;;;;;;;12.60;99.90;;;;;;5032132;28;19940;-74
2022/04/14 04:00:10;;;;;;;;;;;12.70;99.90;;;;;;5030683;28;19904;-74
2022/04/14 04:02:36;;;;;;;;;;;12.70;99.90;;;;;;5029680;28;19915;-74
2022/04/14 04:05:02;;;;;;;;;;;12.60;99.90;;;;;;5030137;28;19963;-74
2022/04/14 04:07:28;;;;;;;;;;;12.70;99.90;;;;;;5014824;28;20005;-73
2022/04/14 04:09:53;;;;;;;;;;;12.60;99.90;;;;;;5033295;28;19991;-74
2022/04/14 04:12:21;;;;;;;;;;;12.60;99.90;;;;;;5030684;28;19905;-73
2022/04/14 04:14:48;;;;;;;;;;;12.60;99.90;;;;;;5029628;28;20434;-74
2022/04/14 04:17:14;;;;;;;;;;;12.50;99.90;;;;;;5011987;28;19916;-74
2022/04/14 04:19:40;;;;;;;;;;;12.50;99.90;;;;;;5029767;28;19914;-74
2022/04/14 04:22:06;;;;;;;;;;;12.60;99.90;;;;;;5032191;28;19905;-74
2022/04/14 04:24:32;;;;;;;;;;;12.60;99.90;;;;;;5032348;28;19992;-74
2022/04/14 04:26:57;;;;;;;;;;;12.60;99.90;;;;;;5029668;28;20043;-74
2022/04/14 04:29:23;;;;;;;;;;;12.60;99.90;;;;;;5029190;28;20058;-74
2022/04/14 04:31:48;;;;;;;;;;;12.60;99.90;;;;;;5029603;28;19951;-74
2022/04/14 04:34:14;;;;;;;;;;;12.60;99.90;;;;;;5031922;28;19909;-74
2022/04/14 04:36:40;;;;;;;;;;;12.60;99.90;;;;;;5031307;28;20282;-74
2022/04/14 04:39:05;;;;;;;;;;;12.60;99.90;;;;;;5029493;28;19917;-74
2022/04/14 04:41:31;;;;;;;;;;;12.60;99.90;;;;;;5029211;28;19909;-74
2022/04/14 04:43:56;;;;;;;;;;;12.60;99.90;;;;;;5028550;28;19936;-74
2022/04/14 04:46:22;;;;;;;;;;;12.60;99.90;;;;;;5029804;28;19925;-74
2022/04/14 04:48:48;;;;;;;;;;;12.60;99.90;;;;;;5031748;28;19912;-74
2022/04/14 04:51:13;;;;;;;;;;;12.60;99.90;;;;;;5029589;28;19948;-74
2022/04/14 04:53:39;;;;;;;;;;;12.60;99.90;;;;;;5029200;28;20364;-74
2022/04/14 04:56:05;;;;;;;;;;;12.60;99.90;;;;;;5028654;28;20433;-74
2022/04/14 04:58:30;;;;;;;;;;;12.60;99.90;;;;;;5028935;28;19909;-73
2022/04/14 05:00:56;;;;;;;;;;;12.60;99.90;;;;;;5032498;28;20393;-74
2022/04/14 05:03:21;;;;;;;;;;;12.60;99.90;;;;;;5029508;28;20023;-75
2022/04/14 05:05:48;;;;;;;;;;;12.50;99.90;;;;;;5028710;28;19909;-73
2022/04/14 05:08:13;;;;;;;;;;;12.50;99.90;;;;;;5028771;28;19913;-74
2022/04/14 05:10:39;;;;;;;;;;;12.40;99.90;;;;;;5028864;28;20048;-75
2022/04/14 05:13:05;;;;;;;;;;;12.40;99.90;;;;;;5031346;28;19958;-75
2022/04/14 05:15:31;;;;;;;;;;;12.40;99.90;;;;;;5029699;28;20354;-75
2022/04/14 05:17:56;;;;;;;;;;;12.40;99.90;;;;;;5028728;28;19971;-74
2022/04/14 05:20:22;;;;;;;;;;;12.40;99.90;;;;;;5028700;28;20583;-74
2022/04/14 05:22:47;;;;;;;;;;;12.40;99.90;;;;;;5028386;28;19920;-74
2022/04/14 05:25:13;;;;;;;;;;;12.20;99.90;;;;;;5031252;28;20471;-74
2022/04/14 05:27:39;;;;;;;;;;;12.30;99.90;;;;;;5029369;28;20368;-74
2022/04/14 05:30:05;;;;;;;;;;;12.30;99.90;;;;;;5028246;28;19913;-74
2022/04/14 05:32:31;;;;;;;;;;;12.40;99.90;;;;;;5028204;28;19963;-74
2022/04/14 05:34:56;;;;;;;;;;;12.40;99.90;;;;;;5028159;28;20373;-73
2022/04/14 05:37:22;;;;;;;;;;;12.40;99.90;;;;;;5029887;28;19909;-74
2022/04/14 05:39:47;;;;;;;;;;;12.40;99.90;;;;;;4991553;28;19917;-73
2022/04/14 05:42:13;;;;;;;;;;;12.40;99.90;;;;;;4988679;28;19945;-73
2022/04/14 05:44:38;;;;;;;;;;;12.50;99.90;;;;;;4988699;28;19917;-73
2022/04/14 05:47:04;;;;;;;;;;;12.60;99.90;;;;;;4988686;28;20373;-73
2022/04/14 05:49:30;;;;;;;;;;;12.70;99.90;;;;;;4989184;28;19909;-73
2022/04/14 05:51:56;;;;;;;;;;;12.80;99.90;;;;;;4992786;28;20356;-74
2022/04/14 05:54:21;;;;;;;;;;;12.90;99.90;;;;;;4988887;28;19910;-73
2022/04/14 05:56:47;;;;;;;;;;;13.00;99.90;;;;;;4987256;28;19910;-73
2022/04/14 05:59:18;;;;;;;;;;;13.00;99.90;;;;;;4989079;28;20004;-73
2022/04/14 06:01:44;;;;;;;;;;;13.10;99.90;;;;;;4988839;28;19914;-73
2022/04/14 06:04:10;;;;;;;;;;;13.20;99.90;;;;;;4991090;28;19906;-73
2022/04/14 06:06:36;;;;;;;;;;;13.30;99.90;;;;;;4990178;28;19957;-73
2022/04/14 06:09:01;;;;;;;;;;;13.40;99.90;;;;;;4988938;28;20000;-74
2022/04/14 06:11:28;;;;;;;;;;;13.40;99.90;;;;;;4988243;28;20402;-73
2022/04/14 06:13:54;;;;;;;;;;;13.50;99.90;;;;;;4988980;28;19932;-73
2022/04/14 06:16:19;;;;;;;;;;;13.60;99.90;;;;;;4990141;28;19918;-74
2022/04/14 06:18:45;;;;;;;;;;;13.70;99.90;;;;;;4990785;28;19957;-73
2022/04/14 06:21:10;;;;;;;;;;;13.70;99.90;;;;;;4988884;28;20012;-74
2022/04/14 06:23:36;;;;;;;;;;;13.80;99.90;;;;;;4988634;28;19936;-73
2022/04/14 06:26:02;;;;;;;;;;;13.90;99.90;;;;;;4988010;28;19917;-73
2022/04/14 06:28:28;;;;;;;;;;;13.90;99.90;;;;;;4974218;28;20349;-73
2022/04/14 06:30:54;;;;;;;;;;;14.00;99.90;;;;;;4991967;28;19956;-73
2022/04/14 06:33:20;;;;;;;;;;;14.10;99.90;;;;;;4988798;28;19959;-74
2022/04/14 06:35:46;;;;;;;;;;;14.20;99.90;;;;;;4988824;28;19909;-73
2022/04/14 06:38:12;;;;;;;;;;;14.20;99.90;;;;;;5001912;28;19921;-73
2022/04/14 06:40:38;;;;;;;;;;;14.30;99.90;;;;;;5027366;28;20004;-73
2022/04/14 06:43:03;;;;;;;;;;;14.40;99.90;;;;;;5030738;28;19917;-73
2022/04/14 06:45:30;;;;;;;;;;;14.50;99.90;;;;;;5028567;28;20329;-73
2022/04/14 06:47:55;;;;;;;;;;;14.60;99.90;;;;;;5027724;28;19917;-74
2022/04/14 06:50:21;;;;;;;;;;;14.60;99.90;;;;;;5010517;28;19967;-74
2022/04/14 06:52:47;;;;;;;;;;;14.70;99.90;;;;;;5027775;28;19945;-73
2022/04/14 06:55:14;;;;;;;;;;;14.80;99.90;;;;;;5029599;28;20317;-74
2022/04/14 06:57:40;;;;;;;;;;;14.90;99.90;;;;;;5029083;28;19913;-74
2022/04/14 07:00:06;;;;;;;;;;;15.00;99.90;;;;;;5027745;28;19955;-73
2022/04/14 07:02:32;;;;;;;;;;;15.10;99.90;;;;;;5027455;28;19909;-74
2022/04/14 07:04:59;;;;;;;;;;;15.20;99.90;;;;;;5027411;28;19913;-73
2022/04/14 07:07:24;;;;;;;;;;;15.30;99.90;;;;;;5028370;28;20294;-74
2022/04/14 07:09:50;;;;;;;;;;;15.40;99.90;;;;;;5013447;28;19913;-73
2022/04/14 07:12:15;;;;;;;;;;;15.50;99.90;;;;;;5029831;28;19912;-73
2022/04/14 07:14:41;;;;;;;;;;;15.60;99.90;;;;;;5031545;28;20475;-74
2022/04/14 07:17:07;;;;;;;;;;;15.80;99.90;;;;;;5031197;28;19915;-74
2022/04/14 07:19:32;;;;;;;;;;;15.80;99.90;;;;;;5030812;28;20378;-74
2022/04/14 07:21:58;;;;;;;;;;;15.90;99.90;;;;;;5034576;28;19905;-74
2022/04/14 07:24:23;;;;;;;;;;;16.00;99.90;;;;;;5029826;28;19913;-73
2022/04/14 07:26:49;;;;;;;;;;;16.10;99.90;;;;;;5031046;28;19917;-74
2022/04/14 07:29:15;;;;;;;;;;;16.20;99.90;;;;;;5030731;28;20405;-73
2022/04/14 07:31:42;;;;;;;;;;;16.20;99.90;;;;;;5030838;28;20560;-73
2022/04/14 07:34:08;;;;;;;;;;;16.30;99.90;;;;;;5032602;28;19905;-73
2022/04/14 07:36:34;;;;;;;;;;;16.40;99.90;;;;;;5031177;28;19967;-75
2022/04/14 07:39:01;;;;;;;;;;;16.50;99.90;;;;;;5029447;28;19929;-74
2022/04/14 07:41:26;;;;;;;;;;;16.60;99.90;;;;;;5030308;28;19909;-74
2022/04/14 07:43:56;;;;;;;;;;;16.70;99.90;;;;;;5030649;28;20465;-74
2022/04/14 07:46:22;;;;;;;;;;;16.70;99.90;;;;;;5031914;28;19950;-75
2022/04/14 07:48:47;;;;;;;;;;;16.90;99.90;;;;;;5032872;28;20347;-75
2022/04/14 07:51:13;;;;;;;;;;;16.90;99.90;;;;;;5030566;28;19916;-74
2022/04/14 07:53:39;;;;;;;;;;;17.00;99.90;;;;;;5029643;28;19909;-74
2022/04/14 07:56:05;;;;;;;;;;;17.10;99.90;;;;;;5030136;28;20289;-74
2022/04/14 07:58:31;;;;;;;;;;;17.20;99.90;;;;;;5030271;28;20271;-75
2022/04/14 08:00:56;;;;;;;;;;;17.30;99.90;;;;;;5029304;28;19912;-74
2022/04/14 08:03:22;;;;;;;;;;;17.40;99.90;;;;;;5030031;28;19952;-74
2022/04/14 08:05:48;;;;;;;;;;;17.40;99.90;;;;;;5029869;28;20078;-75
2022/04/14 08:08:19;;;;;;;;;;;17.50;99.90;;;;;;5028957;28;20207;-75
2022/04/14 08:10:46;;;;;;;;;;;17.60;99.90;;;;;;5029470;28;19920;-75
2022/04/14 08:13:12;;;;;;;;;;;17.70;99.90;;;;;;5032652;28;19905;-74
2022/04/14 08:15:39;;;;;;;;;;;17.80;99.90;;;;;;5031132;28;19909;-74
2022/04/14 08:18:06;;;;;;;;;;;17.80;99.90;;;;;;5029589;28;19960;-75
2022/04/14 08:20:32;;;;;;;;;;;17.90;99.90;;;;;;5029475;28;19996;-75
2022/04/14 08:22:58;;;;;;;;;;;18.00;99.90;;;;;;5029265;28;19913;-75
2022/04/14 08:25:28;;;;;;;;;;;18.10;99.90;;;;;;5030626;28;19967;-75
2022/04/14 08:27:54;;;;;;;;;;;18.20;99.90;;;;;;5015233;28;20576;-75
2022/04/14 08:30:20;;;;;;;;;;;18.40;99.90;;;;;;5030189;28;20000;-74
2022/04/14 08:32:47;;;;;;;;;;;18.50;99.90;;;;;;5029465;28;20420;-75
2022/04/14 08:35:13;;;;;;;;;;;18.60;99.90;;;;;;5029177;28;19912;-75
2022/04/14 08:37:39;;;;;;;;;;;18.60;99.90;;;;;;5029155;28;20306;-75
2022/04/14 08:40:06;;;;;;;;;;;18.70;99.90;;;;;;5032051;28;19909;-75
2022/04/14 08:42:35;;;;;;;;;;;18.80;99.90;;;;;;5030896;28;19944;-75
2022/04/14 08:45:03;;;;;;;;;;;18.90;99.90;;;;;;5029674;28;19909;-75
2022/04/14 08:47:29;;;;;;;;;;;19.10;99.90;;;;;;5028906;28;20051;-75
2022/04/14 08:49:56;;;;;;;;;;;19.10;99.90;;;;;;5029029;28;19952;-75
2022/04/14 08:52:22;;;;;;;;;;;19.20;99.90;;;;;;5030131;28;20004;-75
2022/04/14 08:54:48;;;;;;;;;;;19.30;99.90;;;;;;5031336;28;20044;-75
2022/04/14 08:57:15;;;;;;;;;;;19.40;99.90;;;;;;5029114;28;19913;-75
2022/04/14 08:59:44;;;;;;;;;;;19.50;99.90;;;;;;5029059;28;19935;-75
2022/04/14 09:02:21;;;;;;;;;;;19.80;99.90;;;;;;5028885;28;19951;-75
2022/04/14 09:04:47;;;;;;;;;;;20.00;99.90;;;;;;5028981;28;19917;-75
2022/04/14 09:07:13;;;;;;;;;;;20.20;99.90;;;;;;5031054;28;19912;-75
2022/04/14 09:09:39;;;;;;;;;;;20.20;98.90;;;;;;5030605;28;19905;-75
2022/04/14 09:12:05;;;;;;;;;;;20.30;99.20;;;;;;5028574;28;19921;-76
2022/04/14 09:14:34;;;;;;;;;;;20.40;98.20;;;;;;5028565;28;19923;-75
2022/04/14 09:17:09;;;;;;;;;;;20.50;98.40;;;;;;5028559;28;19916;-76
2022/04/14 09:19:35;;;;;;;;;;;20.60;97.70;;;;;;5014165;28;19992;-76
2022/04/14 09:22:08;;;;;;;;;;;20.60;97.20;;;;;;5031865;28;19905;-76
2022/04/14 09:24:40;;;;;;;;;;;20.80;96.70;;;;;;5031104;28;19909;-76
2022/04/14 09:27:07;;;;;;;;;;;20.90;97.20;;;;;;5028545;28;20429;-75
2022/04/14 09:29:33;;;;;;;;;;;21.00;96.80;;;;;;5028495;28;19936;-75
2022/04/14 09:31:58;;;;;;;;;;;21.10;96.40;;;;;;5028433;28;20389;-76
2022/04/14 09:34:45;;;;;;;;;;;21.20;96.80;;;;;;5029191;28;19924;-75
2022/04/14 09:37:11;;;;;;;;;;;21.30;95.00;;;;;;5028130;28;20020;-76
2022/04/14 09:39:49;;;;;;;;;;;21.30;95.20;;;;;;5028930;28;20433;-75
2022/04/14 09:42:14;;;;;;;;;;;21.30;95.40;;;;;;5028310;28;20004;-76
2022/04/14 09:44:40;;;;;;;;;;;21.30;95.60;;;;;;5028343;28;20398;-76
2022/04/14 09:47:05;;;;;;;;;;;21.40;94.80;;;;;;5027691;28;19979;-76
2022/04/14 09:49:31;;;;;;;;;;;21.50;94.60;;;;;;5028154;28;19909;-75
2022/04/14 09:52:06;;;;;;;;;;;21.40;94.50;;;;;;5032307;28;19928;-76
2022/04/14 09:54:31;;;;;;;;;;;21.60;93.50;;;;;;5029405;28;19916;-76
2022/04/14 09:56:57;;;;;;;;;;;21.70;94.00;;;;;;5029928;28;19913;-76
2022/04/14 09:59:29;;;;;;;;;;;21.80;94.00;;;;;;5028582;28;19909;-76
2022/04/14 10:02:08;;;;;;;;;;;21.90;92.70;;;;;;5028297;28;19924;-76
2022/04/14 10:04:35;;;;;;;;;;;22.00;93.30;;;;;;5012826;28;20390;-76
2022/04/14 10:07:08;;;;;;;;;;;22.10;91.90;;;;;;5031572;28;19967;-76
2022/04/14 10:09:35;;;;;;;;;;;22.20;91.80;;;;;;5030457;28;20587;-76
2022/04/14 10:12:01;;;;;;;;;;;22.20;92.70;;;;;;5028379;28;20247;-76
2022/04/14 10:14:27;;;;;;;;;;;22.20;92.40;;;;;;5027763;28;19967;-76
2022/04/14 10:16:53;;;;;;;;;;;22.40;92.60;;;;;;5028111;28;19944;-76
2022/04/14 10:19:18;;;;;;;;;;;22.40;91.50;;;;;;5029800;28;19905;-76
2022/04/14 10:21:44;;;;;;;;;;;22.40;90.90;;;;;;5029862;28;20382;-76
2022/04/14 10:24:11;;;;;;;;;;;22.30;91.10;;;;;;5027728;28;19963;-77
2022/04/14 10:26:37;;;;;;;;;;;22.50;91.40;;;;;;5028194;28;20012;-76
2022/04/14 10:29:04;;;;;;;;;;;22.50;91.80;;;;;;5028157;28;19997;-76
2022/04/14 10:31:36;;;;;;;;;;;22.70;89.30;;;;;;5012990;28;20332;-77
2022/04/14 10:34:07;;;;;;;;;;;22.70;90.00;;;;;;5026913;28;19912;-77
2022/04/14 10:36:40;;;;;;;;;;;22.90;90.20;;;;;;5029010;28;19911;-77
2022/04/14 10:39:09;;;;;;;;;;;22.90;87.60;;;;;;5027832;28;19963;-76
2022/04/14 10:41:38;;;;;;;;;;;23.00;85.70;;;;;;5028264;28;19915;-77
2022/04/14 10:44:04;;;;;;;;;;;23.10;84.50;;;;;;5031547;28;19917;-76
2022/04/14 10:46:30;;;;;;;;;;;23.20;80.60;;;;;;5015705;28;19971;-76
2022/04/14 10:49:09;;;;;;;;;;;23.20;81.10;;;;;;5035121;28;19952;-77
2022/04/14 10:51:36;;;;;;;;;;;23.20;80.10;;;;;;5034371;28;20328;-76
2022/04/14 10:54:06;;;;;;;;;;;23.30;82.50;;;;;;5031188;28;19909;-76
2022/04/14 10:56:34;;;;;;;;;;;23.50;77.20;;;;;;5031443;28;19909;-76
2022/04/14 10:59:03;;;;;;;;;;;23.50;76.30;;;;;;5031396;28;19917;-76
2022/04/14 11:01:50;;;;;;;;;;;23.60;74.90;;;;;;5031512;28;19924;-76
2022/04/14 11:04:35;;;;;;;;;;;23.60;73.60;;;;;;5031313;28;19906;-77
2022/04/14 11:07:10;;;;;;;;;;;23.50;74.10;;;;;;5034965;28;20314;-77
2022/04/14 11:09:41;;;;;;;;;;;23.40;71.70;;;;;;5033328;28;19912;-77
2022/04/14 11:12:33;;;;;;;;;;;23.20;76.10;;;;;;5031048;28;19913;-76
2022/04/14 11:15:00;;;;;;;;;;;23.10;77.80;;;;;;4953205;29;19910;-77
2022/04/14 11:17:38;;;;;;;;;;;23.00;72.70;;;;;;4953560;29;19910;-77
2022/04/14 11:20:12;;;;;;;;;;;23.30;70.90;;;;;;4953382;29;19910;-77
2022/04/14 11:22:57;;;;;;;;;;;23.50;74.00;;;;;;4939091;29;19917;-76
2022/04/14 11:25:49;;;;;;;;;;;23.80;73.70;;;;;;4953419;29;19918;-77
2022/04/14 11:28:31;;;;;;;;;;;24.00;73.00;;;;;;4951468;29;19921;-77
2022/04/14 11:30:58;;;;;;;;;;;24.10;69.10;;;;;;4953479;29;19906;-76
2022/04/14 11:33:32;;;;;;;;;;;24.20;68.30;;;;;;4953609;29;20336;-77
2022/04/14 11:36:07;;;;;;;;;;;24.10;67.70;;;;;;4953627;29;20523;-77
2022/04/14 11:39:00;;;;;;;;;;;24.00;66.20;;;;;;4950253;29;19918;-77
2022/04/14 11:41:28;;;;;;;;;;;23.90;65.80;;;;;;4952811;29;19910;-80
2022/04/14 11:43:55;;;;;;;;;;;24.00;64.70;;;;;;4953666;29;20464;-77
2022/04/14 11:46:22;;;;;;;;;;;24.10;65.80;;;;;;4952568;29;20380;-77
2022/04/14 11:48:48;;;;;;;;;;;24.10;66.10;;;;;;4953689;29;20312;-77
2022/04/14 11:51:15;;;;;;;;;;;24.10;66.20;;;;;;4969219;28;19916;-76
2022/04/14 11:53:41;;;;;;;;;;;24.10;66.10;;;;;;5023857;28;19905;-76
2022/04/14 11:56:14;;;;;;;;;;;24.10;65.40;;;;;;5030028;28;20282;-75
2022/04/14 11:58:40;;;;;;;;;;;23.80;62.40;;;;;;5030470;28;19933;-75
2022/04/14 12:01:06;;;;;;;;;;;23.70;62.20;;;;;;5033002;28;19909;-75
2022/04/14 12:03:32;;;;;;;;;;;23.80;63.00;;;;;;5030865;28;19908;-75
2022/04/14 12:06:03;;;;;;;;;;;24.00;62.90;;;;;;5029827;28;19905;-76
2022/04/14 12:08:28;;;;;;;;;;;24.00;61.80;;;;;;5030207;28;19959;-75
2022/04/14 12:10:54;;;;;;;;;;;24.30;57.10;;;;;;5029947;28;20362;-75
2022/04/14 12:13:21;;;;;;;;;;;24.20;57.50;;;;;;5031452;28;19909;-75
2022/04/14 12:16:08;;;;;;;;;;;24.00;58.60;;;;;;5031312;28;19931;-75
2022/04/14 12:18:35;;;;;;;;;;;24.10;55.80;;;;;;5032996;28;19920;-75
2022/04/14 12:21:01;;;;;;;;;;;24.20;57.30;;;;;;5029709;28;19975;-75
2022/04/14 12:23:26;;;;;;;;;;;24.10;56.50;;;;;;5012553;28;20346;-75
2022/04/14 12:25:56;;;;;;;;;;;23.80;63.60;;;;;;5030380;28;20358;-74
2022/04/14 12:28:22;;;;;;;;;;;23.80;55.80;;;;;;5012929;28;19951;-74
2022/04/14 12:30:47;;;;;;;;;;;23.90;55.80;;;;;;5028990;28;20385;-74
2022/04/14 12:33:13;;;;;;;;;;;23.90;56.70;;;;;;5008842;28;20274;-74
2022/04/14 12:35:40;;;;;;;;;;;24.00;55.50;;;;;;5025128;28;19914;-74
2022/04/14 12:38:22;;;;;;;;;;;24.00;54.90;;;;;;5025421;28;19988;-74
2022/04/14 12:41:00;;;;;;;;;;;24.00;54.80;;;;;;5025338;28;20353;-74
2022/04/14 12:43:39;;;;;;;;;;;24.10;55.90;;;;;;5026301;28;19952;-74
2022/04/14 12:46:23;;;;;;;;;;;24.30;58.70;;;;;;5025397;28;19909;-74
2022/04/14 12:49:08;;;;;;;;;;;24.20;56.60;;;;;;5027806;28;19931;-74
2022/04/14 12:51:35;;;;;;;;;;;24.30;55.50;;;;;;5002773;28;19909;-74
2022/04/14 12:54:01;;;;;;;;;;;24.40;57.30;;;;;;5007435;28;19979;-75
2022/04/14 12:56:28;;;;;;;;;;;24.30;56.50;;;;;;5024668;28;20541;-74
2022/04/14 12:59:06;;;;;;;;;;;24.20;55.00;;;;;;5024494;28;20433;-74
2022/04/14 13:01:48;;;;;;;;;;;24.10;58.30;;;;;;5009306;28;19921;-74
2022/04/14 13:04:14;;;;;;;;;;;24.30;57.80;;;;;;5025476;28;20117;-73
2022/04/14 13:06:40;;;;;;;;;;;24.30;56.70;;;;;;5028880;28;19924;-73
2022/04/14 13:09:13;;;;;;;;;;;24.30;53.70;;;;;;5028660;28;19909;-73
2022/04/14 13:11:42;;;;;;;;;;;24.40;57.30;;;;;;5028833;28;20343;-73
2022/04/14 13:14:18;;;;;;;;;;;24.40;56.40;;;;;;5028577;28;19909;-74
2022/04/14 13:16:44;;;;;;;;;;;24.40;55.50;;;;;;5029264;28;20020;-74
2022/04/14 13:19:10;;;;;;;;;;;24.40;54.40;;;;;;5013507;28;19912;-73
2022/04/14 13:21:36;;;;;;;;;;;24.50;54.30;;;;;;5030142;28;19909;-73
2022/04/14 13:24:02;;;;;;;;;;;24.60;54.40;;;;;;5028456;28;19909;-74
2022/04/14 13:26:27;;;;;;;;;;;24.70;61.10;;;;;;5027974;28;19951;-74
2022/04/14 13:28:53;;;;;;;;;;;24.70;59.30;;;;;;5028350;28;20083;-74
2022/04/14 13:31:18;;;;;;;;;;;24.80;58.80;;;;;;5026835;28;19909;-73
2022/04/14 13:33:44;;;;;;;;;;;24.80;57.50;;;;;;5026374;28;19917;-73
2022/04/14 13:36:09;;;;;;;;;;;24.70;55.90;;;;;;5024033;28;20393;-74
2022/04/14 13:38:35;;;;;;;;;;;24.80;56.10;;;;;;5023770;28;19917;-73
2022/04/14 13:41:00;;;;;;;;;;;24.90;55.40;;;;;;5024312;28;19916;-75
2022/04/14 13:43:26;;;;;;;;;;;24.90;56.20;;;;;;5025819;28;19916;-75
2022/04/14 13:45:52;;;;;;;;;;;25.40;55.80;;;;;;5026100;28;20244;-76
2022/04/14 13:48:17;;;;;;;;;;;25.40;57.80;;;;;;5024064;28;20297;-76
2022/04/14 13:50:45;;;;;;;;;;;25.50;55.70;;;;;;5024821;28;19916;-76
2022/04/14 13:53:11;;;;;;;;;;;25.50;55.40;;;;;;5024354;28;20024;-76
2022/04/14 13:55:37;;;;;;;;;;;25.60;59.40;;;;;;5023848;28;20343;-76
2022/04/14 13:58:03;;;;;;;;;;;25.80;58.30;;;;;;5027421;28;20357;-76
2022/04/14 14:00:29;;;;;;;;;;;25.70;56.20;;;;;;5026497;28;19916;-77
2022/04/14 14:02:54;;;;;;;;;;;25.80;57.70;;;;;;5024252;28;19909;-76
2022/04/14 14:05:20;;;;;;;;;;;25.80;57.60;;;;;;5023384;28;19916;-76
2022/04/14 14:07:45;;;;;;;;;;;25.90;57.20;;;;;;5023871;28;20394;-76
2022/04/14 14:10:12;;;;;;;;;;;26.00;55.00;;;;;;5025839;28;19928;-77
2022/04/14 14:12:39;;;;;;;;;;;26.10;54.40;;;;;;5025561;28;19912;-76
2022/04/14 14:15:08;;;;;;;;;;;26.00;55.70;;;;;;5023284;28;20507;-77
2022/04/14 14:17:38;;;;;;;;;;;26.20;57.90;;;;;;5025923;28;19950;-77